createdAt,value
2023-04-08T00:00:38.656Z,7.43
2023-04-08T00:03:11.748Z,6.03
2023-04-08T00:05:44.557Z,4.90
2023-04-08T00:08:17.221Z,6.10
2023-04-08T00:10:50.049Z,5.40
2023-04-08T00:13:22.838Z,6.30
2023-04-08T00:15:55.934Z,6.90
2023-04-08T00:18:29.221Z,7.63
2023-04-08T00:21:02.039Z,6.87
2023-04-08T00:23:34.882Z,4.53
2023-04-08T00:26:07.683Z,7.50
2023-04-08T00:28:41.026Z,4.40
2023-04-08T00:31:13.930Z,6.63
2023-04-08T00:33:47.188Z,4.97
2023-04-08T00:36:19.975Z,5.90
2023-04-08T00:38:52.631Z,5.37
2023-04-08T00:41:25.861Z,6.17
2023-04-08T00:43:58.557Z,6.17
2023-04-08T00:46:36.707Z,4.13
2023-04-08T00:49:09.892Z,7.43
2023-04-08T00:51:42.755Z,6.80
2023-04-08T00:54:15.452Z,4.77
2023-04-08T00:56:48.393Z,5.27
2023-04-08T00:59:21.094Z,4.00
2023-04-08T01:02:07.050Z,5.70
2023-04-08T01:05:01.371Z,4.03
2023-04-08T01:07:37.650Z,4.90
2023-04-08T01:10:16.384Z,5.00
2023-04-08T01:12:56.118Z,4.37
2023-04-08T01:15:30.545Z,3.80
2023-04-08T01:18:08.154Z,4.00
2023-04-08T01:20:42.771Z,3.80
2023-04-08T01:23:28.954Z,3.97
2023-04-08T01:26:01.755Z,6.37
2023-04-08T01:28:35.978Z,6.83
2023-04-08T01:31:08.919Z,6.60
2023-04-08T01:33:42.667Z,7.00
2023-04-08T01:36:17.588Z,5.53
2023-04-08T01:38:51.086Z,3.77
2023-04-08T01:41:24.331Z,4.87
2023-04-08T01:43:58.724Z,4.30
2023-04-08T01:46:32.547Z,5.40
2023-04-08T01:49:07.080Z,6.27
2023-04-08T01:51:41.832Z,4.10
2023-04-08T01:54:14.735Z,4.47
2023-04-08T01:56:50.254Z,5.10
2023-04-08T01:59:29.652Z,4.83
2023-04-08T02:02:06.181Z,5.93
2023-04-08T02:04:39.109Z,7.70
2023-04-08T02:07:12.647Z,5.63
2023-04-08T02:09:45.509Z,6.23
2023-04-08T02:12:18.735Z,5.27
2023-04-08T02:14:51.709Z,3.83
2023-04-08T02:17:35.906Z,4.83
2023-04-08T02:20:13.911Z,6.80
2023-04-08T02:22:55.479Z,5.13
2023-04-08T02:25:30.441Z,3.97
2023-04-08T02:28:09.445Z,4.97
2023-04-08T02:30:44.132Z,9.53
2023-04-08T02:33:20.876Z,7.17
2023-04-08T02:35:55.851Z,9.67
2023-04-08T02:38:30.653Z,6.73
2023-04-08T02:41:03.562Z,7.03
2023-04-08T02:43:36.741Z,6.77
2023-04-08T02:46:12.347Z,7.80
2023-04-08T02:48:45.227Z,8.90
2023-04-08T02:51:17.880Z,6.67
2023-04-08T02:53:50.677Z,7.73
2023-04-08T02:56:23.446Z,6.37
2023-04-08T02:58:56.322Z,7.17
2023-04-08T03:01:29.067Z,4.93
2023-04-08T03:04:02.039Z,6.60
2023-04-08T03:06:34.732Z,5.97
2023-04-08T03:09:07.756Z,5.10
2023-04-08T03:11:40.583Z,6.67
2023-04-08T03:14:13.226Z,5.53
2023-04-08T03:16:46.060Z,7.77
2023-04-08T03:19:18.743Z,6.37
2023-04-08T03:21:51.378Z,6.77
2023-04-08T03:24:24.116Z,7.50
2023-04-08T03:26:56.836Z,8.87
2023-04-08T03:29:30.297Z,6.97
2023-04-08T03:32:03.242Z,6.00
2023-04-08T03:34:36.056Z,7.47
2023-04-08T03:37:08.825Z,8.17
2023-04-08T03:39:41.967Z,9.00
2023-04-08T03:42:14.919Z,5.50
2023-04-08T03:44:47.603Z,4.60
2023-04-08T03:47:20.296Z,6.53
2023-04-08T03:49:54.607Z,6.63
2023-04-08T03:52:27.903Z,8.50
2023-04-08T03:55:00.955Z,7.17
2023-04-08T03:57:33.594Z,8.97
2023-04-08T04:00:07.188Z,7.27
2023-04-08T04:02:44.968Z,6.27
2023-04-08T04:05:17.910Z,7.03
2023-04-08T04:07:50.675Z,8.17
2023-04-08T04:10:23.550Z,6.70
2023-04-08T04:12:56.241Z,5.93
2023-04-08T04:15:29.082Z,6.97
2023-04-08T04:18:01.897Z,9.43
2023-04-08T04:20:34.940Z,10.50
2023-04-08T04:23:07.794Z,11.30
2023-04-08T04:25:44.310Z,10.03
2023-04-08T04:28:17.140Z,7.23
2023-04-08T04:30:49.973Z,9.67
2023-04-08T04:33:22.922Z,10.27
2023-04-08T04:35:56.209Z,7.13
2023-04-08T04:38:29.050Z,11.40
2023-04-08T04:41:01.884Z,10.27
2023-04-08T04:43:34.653Z,9.43
2023-04-08T04:46:08.896Z,8.80
2023-04-08T04:48:41.651Z,10.77
2023-04-08T04:51:14.544Z,11.43
2023-04-08T04:53:48.098Z,8.27
2023-04-08T04:56:21.544Z,9.10
2023-04-08T04:58:54.214Z,11.13
2023-04-08T05:01:28.821Z,9.07
2023-04-08T05:04:01.981Z,8.83
2023-04-08T05:06:34.844Z,9.83
2023-04-08T05:09:07.587Z,9.57
2023-04-08T05:11:40.424Z,11.93
2023-04-08T05:14:13.291Z,10.83
2023-04-08T05:16:46.006Z,9.80
2023-04-08T05:19:18.824Z,9.20
2023-04-08T05:21:51.576Z,12.03
2023-04-08T05:24:24.264Z,11.50
2023-04-08T05:26:57.773Z,11.53
2023-04-08T05:29:30.427Z,11.03
2023-04-08T05:32:03.192Z,12.73
2023-04-08T05:34:35.932Z,9.23
2023-04-08T05:37:08.909Z,12.33
2023-04-08T05:39:42.528Z,11.90
2023-04-08T05:42:17.508Z,12.30
2023-04-08T05:44:50.143Z,11.03
2023-04-08T05:47:22.970Z,12.27
2023-04-08T05:49:55.731Z,13.40
2023-04-08T05:52:28.542Z,12.40
2023-04-08T05:55:01.470Z,12.17
2023-04-08T05:57:34.092Z,13.23
2023-04-08T06:00:08.913Z,11.43
2023-04-08T06:02:42.968Z,10.90
2023-04-08T06:05:16.374Z,12.20
2023-04-08T06:07:49.066Z,13.00
2023-04-08T06:10:21.797Z,11.40
2023-04-08T06:12:54.757Z,10.53
2023-04-08T06:15:28.081Z,11.40
2023-04-08T06:18:00.868Z,11.90
2023-04-08T06:20:34.137Z,11.03
2023-04-08T06:23:06.910Z,9.13
2023-04-08T06:25:39.901Z,13.07
2023-04-08T06:28:12.575Z,16.63
2023-04-08T06:30:45.377Z,16.10
2023-04-08T06:33:18.346Z,10.67
2023-04-08T06:35:51.879Z,15.50
2023-04-08T06:38:24.650Z,12.43
2023-04-08T06:41:01.747Z,9.77
2023-04-08T06:43:35.718Z,12.33
2023-04-08T06:46:08.402Z,11.17
2023-04-08T06:48:41.519Z,14.03
2023-04-08T06:51:14.276Z,12.70
2023-04-08T06:53:47.512Z,14.03
2023-04-08T06:56:22.437Z,12.73
2023-04-08T06:58:55.425Z,13.00
2023-04-08T07:01:28.238Z,14.80
2023-04-08T07:04:02.421Z,13.43
2023-04-08T07:06:35.409Z,15.33
2023-04-08T07:09:08.056Z,16.67
2023-04-08T07:11:40.957Z,17.13
2023-04-08T07:14:13.794Z,14.30
2023-04-08T07:16:47.832Z,14.80
2023-04-08T07:19:20.975Z,15.10
2023-04-08T07:21:53.890Z,15.50
2023-04-08T07:24:26.994Z,14.67
2023-04-08T07:26:59.796Z,15.07
2023-04-08T07:29:32.704Z,14.67
2023-04-08T07:32:05.569Z,12.93
2023-04-08T07:34:38.245Z,12.83
2023-04-08T07:37:10.962Z,14.93
2023-04-08T07:39:43.742Z,13.43
2023-04-08T07:42:16.590Z,15.50
2023-04-08T07:44:49.462Z,14.47
2023-04-08T07:47:22.173Z,14.33
2023-04-08T07:49:54.934Z,15.27
2023-04-08T07:52:27.646Z,15.50
2023-04-08T07:55:01.493Z,15.07
2023-04-08T07:57:34.353Z,16.00
2023-04-08T08:00:07.899Z,12.97
2023-04-08T08:02:49.592Z,16.47
2023-04-08T08:05:22.355Z,16.93
2023-04-08T08:07:55.283Z,14.17
2023-04-08T08:10:28.125Z,13.20
2023-04-08T08:13:00.986Z,17.10
2023-04-08T08:15:34.270Z,17.70
2023-04-08T08:18:06.969Z,15.03
2023-04-08T08:20:39.808Z,16.33
2023-04-08T08:23:12.502Z,12.93
2023-04-08T08:25:45.464Z,16.87
2023-04-08T08:28:18.327Z,14.93
2023-04-08T08:30:51.536Z,16.27
2023-04-08T08:33:25.482Z,13.00
2023-04-08T08:35:59.155Z,13.17
2023-04-08T08:38:32.316Z,15.63
2023-04-08T08:41:05.210Z,16.53
2023-04-08T08:43:38.758Z,14.73
2023-04-08T08:46:12.334Z,14.83
2023-04-08T08:48:45.696Z,14.97
2023-04-08T08:51:18.969Z,16.97
2023-04-08T08:53:51.960Z,12.10
2023-04-08T08:56:25.020Z,13.43
2023-04-08T08:58:57.805Z,12.03
2023-04-08T09:01:39.336Z,11.67
2023-04-08T09:04:20.594Z,15.40
2023-04-08T09:07:11.361Z,15.23
2023-04-08T09:09:51.531Z,13.90
2023-04-08T09:12:26.030Z,12.77
2023-04-08T09:15:09.255Z,11.87
2023-04-08T09:17:42.540Z,14.97
2023-04-08T09:20:15.463Z,13.00
2023-04-08T09:23:02.566Z,14.37
2023-04-08T09:25:35.606Z,13.43
2023-04-08T09:28:20.441Z,14.03
2023-04-08T09:30:53.344Z,12.53
2023-04-08T09:33:32.299Z,13.23
2023-04-08T09:36:05.684Z,12.87
2023-04-08T09:38:38.570Z,13.63
2023-04-08T09:41:15.446Z,13.00
2023-04-08T09:43:50.609Z,11.03
2023-04-08T09:46:32.494Z,10.77
2023-04-08T09:49:13.498Z,12.43
2023-04-08T09:51:53.490Z,9.13
2023-04-08T09:54:37.962Z,12.80
2023-04-08T09:57:16.619Z,9.63
2023-04-08T09:59:55.644Z,13.73
2023-04-08T10:02:33.964Z,12.63
2023-04-08T10:05:08.617Z,10.63
2023-04-08T10:07:42.307Z,13.20
2023-04-08T10:10:15.399Z,9.73
2023-04-08T10:12:49.203Z,13.17
2023-04-08T10:15:26.156Z,8.97
2023-04-08T10:18:08.217Z,7.90
2023-04-08T10:20:41.304Z,8.17
2023-04-08T10:23:15.765Z,8.33
2023-04-08T10:25:49.127Z,8.13
2023-04-08T10:28:22.573Z,10.60
2023-04-08T10:30:56.734Z,11.87
2023-04-08T10:33:29.463Z,9.77
2023-04-08T10:36:12.266Z,10.77
2023-04-08T10:38:47.180Z,8.27
2023-04-08T10:41:24.484Z,8.57
2023-04-08T10:43:57.210Z,10.70
2023-04-08T10:46:37.623Z,10.03
2023-04-08T10:49:10.950Z,9.20
2023-04-08T10:51:44.365Z,9.40
2023-04-08T10:54:18.574Z,9.80
2023-04-08T10:56:53.405Z,9.17
2023-04-08T10:59:32.071Z,10.87
2023-04-08T11:02:04.882Z,11.40
2023-04-08T11:04:42.551Z,10.60
2023-04-08T11:07:15.969Z,8.73
2023-04-08T11:09:49.485Z,13.03
2023-04-08T11:12:22.899Z,11.70
2023-04-08T11:14:57.421Z,7.40
2023-04-08T11:17:31.128Z,11.50
2023-04-08T11:20:06.265Z,10.33
2023-04-08T11:22:39.933Z,9.27
2023-04-08T11:25:12.694Z,8.33
2023-04-08T11:27:46.340Z,6.67
2023-04-08T11:30:19.978Z,7.07
2023-04-08T11:32:53.646Z,9.33
2023-04-08T11:35:31.015Z,8.17
2023-04-08T11:38:05.137Z,10.73
2023-04-08T11:40:38.461Z,8.50
2023-04-08T11:43:16.994Z,10.37
2023-04-08T11:45:50.311Z,9.90
2023-04-08T11:48:23.668Z,10.65
2023-04-08T11:51:04.793Z,7.33
2023-04-08T11:53:37.953Z,9.40
2023-04-08T11:56:19.157Z,10.23
2023-04-08T11:58:52.593Z,8.68
2023-04-08T12:01:25.748Z,8.27
2023-04-08T12:04:00.688Z,8.85
2023-04-08T12:06:34.004Z,10.57
2023-04-08T12:09:07.921Z,8.10
2023-04-08T12:11:40.609Z,7.50
2023-04-08T12:14:13.636Z,6.30
2023-04-08T12:16:46.628Z,8.20
2023-04-08T12:19:19.267Z,9.05
2023-04-08T12:21:52.154Z,6.75
2023-04-08T12:24:24.804Z,8.07
2023-04-08T12:26:57.714Z,10.13
2023-04-08T12:29:30.732Z,7.55
2023-04-08T12:32:05.429Z,8.27
2023-04-08T12:34:38.165Z,6.57
2023-04-08T12:37:11.405Z,7.30
2023-04-08T12:39:44.108Z,5.50
2023-04-08T12:42:16.850Z,4.70
2023-04-08T12:44:49.856Z,6.32
2023-04-08T12:47:24.911Z,6.30
2023-04-08T12:49:58.882Z,8.23
2023-04-08T12:52:31.536Z,8.23
2023-04-08T12:55:04.756Z,10.23
2023-04-08T12:57:37.377Z,7.35
2023-04-08T13:00:11.357Z,8.07
2023-04-08T13:02:45.876Z,7.47
2023-04-08T13:05:23.650Z,5.23
2023-04-08T13:08:02.434Z,5.97
2023-04-08T13:10:35.281Z,6.28
2023-04-08T13:13:07.967Z,6.70
2023-04-08T13:15:40.782Z,5.30
2023-04-08T13:18:14.149Z,6.47
2023-04-08T13:20:46.953Z,5.27
2023-04-08T13:23:21.070Z,6.00
2023-04-08T13:25:53.882Z,5.50
2023-04-08T13:28:26.666Z,6.17
2023-04-08T13:30:59.471Z,4.90
2023-04-08T13:33:32.194Z,5.20
2023-04-08T13:36:05.509Z,5.77
2023-04-08T13:38:38.191Z,6.13
2023-04-08T13:41:11.093Z,4.43
2023-04-08T13:43:43.706Z,5.63
2023-04-08T13:46:16.641Z,8.73
2023-04-08T13:48:49.588Z,5.60
2023-04-08T13:51:22.741Z,4.37
2023-04-08T13:53:55.426Z,4.20
2023-04-08T13:56:28.321Z,4.83
2023-04-08T13:59:01.410Z,10.07
2023-04-08T14:01:34.846Z,6.37
2023-04-08T14:04:07.636Z,5.73
2023-04-08T14:06:40.622Z,4.63
2023-04-08T14:09:13.539Z,5.07
2023-04-08T14:11:47.286Z,3.77
2023-04-08T14:14:21.630Z,4.17
2023-04-08T14:16:54.538Z,3.23
2023-04-08T14:19:33.071Z,3.97
2023-04-08T14:22:08.664Z,3.17
2023-04-08T14:24:41.496Z,3.43
2023-04-08T14:27:18.911Z,2.83
2023-04-08T14:29:53.619Z,2.77
2023-04-08T14:32:26.475Z,3.90
2023-04-08T14:34:59.207Z,3.20
2023-04-08T14:37:33.452Z,4.53
2023-04-08T14:40:07.058Z,4.83
2023-04-08T14:42:39.751Z,5.77
2023-04-08T14:45:19.660Z,6.27
2023-04-08T14:48:01.266Z,5.47
2023-04-08T14:50:34.262Z,5.50
2023-04-08T14:53:06.982Z,6.10
2023-04-08T14:55:39.955Z,6.20
2023-04-08T14:58:12.856Z,7.03
2023-04-08T15:00:48.764Z,5.37
2023-04-08T15:03:22.687Z,4.20
2023-04-08T15:06:01.819Z,6.13
2023-04-08T15:08:35.132Z,6.10
2023-04-08T15:11:08.022Z,6.03
2023-04-08T15:13:41.077Z,4.53
2023-04-08T15:16:13.791Z,4.53
2023-04-08T15:18:46.620Z,5.47
2023-04-08T15:21:19.373Z,8.03
2023-04-08T15:23:52.419Z,5.67
2023-04-08T15:26:25.371Z,6.70
2023-04-08T15:28:59.169Z,6.57
2023-04-08T15:31:32.512Z,5.87
2023-04-08T15:34:05.192Z,7.07
2023-04-08T15:36:37.993Z,5.50
2023-04-08T15:39:10.830Z,7.77
2023-04-08T15:41:43.682Z,7.20
2023-04-08T15:44:16.551Z,7.30
2023-04-08T15:46:49.240Z,10.13
2023-04-08T15:49:22.066Z,9.40
2023-04-08T15:51:54.919Z,9.20
2023-04-08T15:54:29.550Z,6.07
2023-04-08T15:57:03.727Z,7.80
2023-04-08T15:59:36.616Z,8.17
2023-04-08T16:02:09.489Z,11.20
2023-04-08T16:04:42.782Z,8.93
2023-04-08T16:07:16.562Z,7.63
2023-04-08T16:09:49.331Z,7.57
2023-04-08T16:12:22.059Z,9.67
2023-04-08T16:14:54.992Z,9.07
2023-04-08T16:17:27.982Z,11.57
2023-04-08T16:20:00.885Z,10.13
2023-04-08T16:22:33.544Z,10.50
2023-04-08T16:25:06.679Z,10.30
2023-04-08T16:27:39.412Z,10.60
2023-04-08T16:30:12.348Z,7.83
2023-04-08T16:32:45.142Z,8.00
2023-04-08T16:35:18.497Z,9.17
2023-04-08T16:37:51.256Z,9.57
2023-04-08T16:40:24.210Z,9.83
2023-04-08T16:42:56.898Z,9.37
2023-04-08T16:45:30.680Z,8.30
2023-04-08T16:48:03.478Z,10.33
2023-04-08T16:50:40.174Z,10.47
2023-04-08T16:53:12.832Z,9.37
2023-04-08T16:55:45.910Z,8.53
2023-04-08T16:58:18.538Z,11.20
2023-04-08T17:00:51.196Z,8.63
2023-04-08T17:03:24.010Z,10.33
2023-04-08T17:06:06.334Z,10.83
2023-04-08T17:08:43.146Z,11.00
2023-04-08T17:11:16.169Z,8.60
2023-04-08T17:13:49.551Z,8.47
2023-04-08T17:16:22.923Z,12.35
2023-04-08T17:18:55.644Z,9.87
2023-04-08T17:21:28.326Z,10.50
2023-04-08T17:24:01.093Z,10.47
2023-04-08T17:26:33.878Z,11.07
2023-04-08T17:29:06.845Z,8.40
2023-04-08T17:31:39.996Z,9.20
2023-04-08T17:34:12.921Z,10.40
2023-04-08T17:36:45.808Z,13.73
2023-04-08T17:39:18.634Z,10.67
2023-04-08T17:41:51.456Z,9.13
2023-04-08T17:44:29.687Z,8.50
2023-04-08T17:47:03.610Z,8.80
2023-04-08T17:49:36.429Z,9.83
2023-04-08T17:52:09.072Z,9.77
2023-04-08T17:54:41.766Z,11.77
2023-04-08T17:57:14.416Z,10.10
2023-04-08T17:59:47.089Z,8.97
2023-04-08T18:02:19.919Z,9.07
2023-04-08T18:04:52.729Z,10.00
2023-04-08T18:07:25.354Z,8.40
2023-04-08T18:09:58.079Z,9.53
2023-04-08T18:12:31.523Z,8.70
2023-04-08T18:15:04.600Z,10.47
2023-04-08T18:17:37.331Z,10.07
2023-04-08T18:20:10.574Z,10.33
2023-04-08T18:22:43.305Z,9.80
2023-04-08T18:25:16.086Z,9.90
2023-04-08T18:27:49.327Z,7.10
2023-04-08T18:30:22.044Z,10.90
2023-04-08T18:32:54.784Z,9.90
2023-04-08T18:35:27.580Z,17.80
2023-04-08T18:38:00.315Z,13.27
2023-04-08T18:40:33.684Z,11.17
2023-04-08T18:43:08.910Z,14.90
2023-04-08T18:45:47.689Z,12.23
2023-04-08T18:48:20.648Z,14.20
2023-04-08T18:50:53.534Z,14.20
2023-04-08T18:53:26.347Z,14.63
2023-04-08T18:55:59.606Z,13.17
2023-04-08T18:58:32.291Z,15.07
2023-04-08T19:01:07.851Z,14.33
2023-04-08T19:03:40.841Z,17.97
2023-04-08T19:06:13.670Z,13.57
2023-04-08T19:08:48.234Z,16.60
2023-04-08T19:11:21.413Z,13.20
2023-04-08T19:13:54.621Z,13.43
2023-04-08T19:16:27.443Z,15.10
2023-04-08T19:19:00.863Z,16.40
2023-04-08T19:21:37.638Z,16.33
2023-04-08T19:24:10.306Z,28.63
2023-04-08T19:26:43.162Z,18.87
2023-04-08T19:29:16.015Z,14.50
2023-04-08T19:31:48.984Z,16.87
2023-04-08T19:34:21.710Z,16.67
2023-04-08T19:36:54.494Z,17.30
2023-04-08T19:39:28.855Z,16.77
2023-04-08T19:42:02.089Z,15.27
2023-04-08T19:44:34.999Z,16.20
2023-04-08T19:47:07.688Z,15.33
2023-04-08T19:49:40.493Z,16.37
2023-04-08T19:52:13.217Z,18.20
2023-04-08T19:54:53.041Z,15.63
2023-04-08T19:57:26.312Z,16.60
2023-04-08T19:59:59.135Z,15.97
2023-04-08T20:02:32.410Z,15.13
2023-04-08T20:05:06.804Z,19.60
2023-04-08T20:07:40.139Z,17.77
2023-04-08T20:10:13.379Z,17.47
2023-04-08T20:12:47.872Z,15.23
2023-04-08T20:15:25.223Z,17.07
2023-04-08T20:17:58.361Z,18.37
2023-04-08T20:20:31.091Z,16.10
2023-04-08T20:23:04.079Z,16.20
2023-04-08T20:25:37.147Z,18.73
2023-04-08T20:28:09.973Z,17.33
2023-04-08T20:30:42.650Z,15.87
2023-04-08T20:33:15.553Z,17.90
2023-04-08T20:35:50.338Z,17.67
2023-04-08T20:38:24.867Z,18.90
2023-04-08T20:41:00.305Z,20.47
2023-04-08T20:43:33.435Z,20.90
2023-04-08T20:46:06.256Z,17.97
2023-04-08T20:48:39.256Z,19.57
2023-04-08T20:51:12.053Z,18.37
2023-04-08T20:53:44.876Z,17.47
2023-04-08T20:56:17.681Z,17.63
2023-04-08T20:58:50.691Z,19.57
2023-04-08T21:01:24.111Z,18.20
2023-04-08T21:03:57.098Z,19.80
2023-04-08T21:06:29.803Z,18.77
2023-04-08T21:09:02.778Z,20.80
2023-04-08T21:11:35.434Z,19.73
2023-04-08T21:14:08.265Z,16.07
2023-04-08T21:16:41.029Z,18.80
2023-04-08T21:19:13.907Z,22.97
2023-04-08T21:21:46.850Z,18.63
2023-04-08T21:24:19.539Z,19.77
2023-04-08T21:26:52.300Z,18.87
2023-04-08T21:29:25.135Z,19.47
2023-04-08T21:31:57.995Z,21.80
2023-04-08T21:34:30.925Z,19.47
2023-04-08T21:37:03.707Z,22.37
2023-04-08T21:39:36.383Z,22.53
2023-04-08T21:42:09.204Z,20.60
2023-04-08T21:44:41.860Z,20.03
2023-04-08T21:47:14.830Z,23.27
2023-04-08T21:49:48.765Z,21.23
2023-04-08T21:52:21.727Z,21.27
2023-04-08T21:54:54.450Z,22.60
2023-04-08T21:57:27.174Z,21.97
2023-04-08T22:00:00.005Z,21.90
2023-04-08T22:02:36.738Z,21.97
2023-04-08T22:05:10.332Z,19.17
2023-04-08T22:07:43.092Z,18.60
2023-04-08T22:10:15.812Z,20.80
2023-04-08T22:12:48.454Z,26.73
2023-04-08T22:15:21.751Z,19.23
2023-04-08T22:17:54.426Z,21.50
2023-04-08T22:20:28.002Z,22.03
2023-04-08T22:23:00.653Z,22.30
2023-04-08T22:25:33.385Z,20.87
2023-04-08T22:28:06.165Z,22.97
2023-04-08T22:30:39.039Z,21.70
2023-04-08T22:33:12.022Z,21.97
2023-04-08T22:35:44.813Z,21.67
2023-04-08T22:38:17.501Z,22.23
2023-04-08T22:40:50.271Z,19.60
2023-04-08T22:43:22.958Z,20.40
2023-04-08T22:45:56.483Z,20.33
2023-04-08T22:48:29.211Z,23.40
2023-04-08T22:51:02.063Z,20.27
2023-04-08T22:53:35.158Z,23.83
2023-04-08T22:56:07.955Z,23.50
2023-04-08T22:58:40.954Z,20.63
2023-04-08T23:01:21.093Z,20.83
2023-04-08T23:03:53.831Z,21.53
2023-04-08T23:06:28.679Z,22.40
2023-04-08T23:09:01.414Z,18.60
2023-04-08T23:11:34.112Z,19.17
2023-04-08T23:14:06.942Z,19.57
2023-04-08T23:16:39.685Z,21.23
2023-04-08T23:19:12.654Z,19.93
2023-04-08T23:21:45.509Z,19.07
2023-04-08T23:24:18.238Z,17.00
2023-04-08T23:26:51.025Z,19.20
2023-04-08T23:29:24.081Z,19.37
2023-04-08T23:31:56.870Z,20.70
2023-04-08T23:34:29.520Z,20.43
2023-04-08T23:37:04.200Z,20.90
2023-04-08T23:39:36.923Z,21.07
2023-04-08T23:42:09.553Z,19.47
2023-04-08T23:44:42.432Z,18.67
2023-04-08T23:47:15.611Z,20.47
2023-04-08T23:49:48.539Z,18.50
2023-04-08T23:52:21.207Z,20.90
2023-04-08T23:54:54.212Z,20.87
2023-04-08T23:57:26.933Z,17.03
2023-04-08T23:59:59.872Z,19.80
